createdAt,value
2023-01-06T00:01:21.570Z,101739.13
2023-01-06T00:03:53.560Z,101735.66
2023-01-06T00:06:27.456Z,101731.31
2023-01-06T00:09:00.739Z,101735.56
2023-01-06T00:11:28.353Z,101731.16
2023-01-06T00:13:56.932Z,101679.75
2023-01-06T00:16:24.967Z,101713.84
2023-01-06T00:18:59.091Z,101726.84
2023-01-06T00:21:27.330Z,101717.25
2023-01-06T00:23:55.429Z,101716.44
2023-01-06T00:26:23.333Z,101709.47
2023-01-06T00:28:54.920Z,101702.56
2023-01-06T00:31:22.891Z,101705.97
2023-01-06T00:33:50.440Z,101709.50
2023-01-06T00:36:17.974Z,101722.44
2023-01-06T00:38:45.600Z,101709.41
2023-01-06T00:41:28.913Z,101716.31
2023-01-06T00:43:58.459Z,101717.19
2023-01-06T00:46:28.882Z,101721.56
2023-01-06T00:49:07.328Z,101725.03
2023-01-06T00:51:37.451Z,101724.06
2023-01-06T00:54:05.393Z,101715.41
2023-01-06T00:56:33.100Z,101712.84
2023-01-06T00:59:00.703Z,101724.22
2023-01-06T01:01:28.440Z,101700.75
2023-01-06T01:03:56.238Z,101725.06
2023-01-06T01:06:23.900Z,101718.16
2023-01-06T01:08:56.053Z,101718.19
2023-01-06T01:11:41.864Z,101711.22
2023-01-06T01:14:10.338Z,101713.03
2023-01-06T01:16:38.214Z,101686.91
2023-01-06T01:19:06.125Z,101693.06
2023-01-06T01:21:33.678Z,101690.41
2023-01-06T01:24:01.366Z,101677.38
2023-01-06T01:26:28.882Z,101683.53
2023-01-06T01:28:56.436Z,101681.75
2023-01-06T01:31:24.009Z,101685.25
2023-01-06T01:33:51.669Z,101674.00
2023-01-06T01:36:19.931Z,101676.59
2023-01-06T01:38:47.454Z,101692.22
2023-01-06T01:41:18.062Z,101680.91
2023-01-06T01:44:01.399Z,101677.47
2023-01-06T01:46:40.472Z,101677.47
2023-01-06T01:49:19.265Z,101661.84
2023-01-06T01:51:49.310Z,101676.59
2023-01-06T01:54:24.448Z,101664.47
2023-01-06T01:57:04.451Z,101665.38
2023-01-06T01:59:35.318Z,101660.16
2023-01-06T02:02:03.482Z,101667.09
2023-01-06T02:04:34.274Z,101658.44
2023-01-06T02:07:03.185Z,101648.81
2023-01-06T02:09:39.421Z,101645.34
2023-01-06T02:12:07.359Z,101650.56
2023-01-06T02:14:34.881Z,101633.16
2023-01-06T02:17:20.903Z,101636.66
2023-01-06T02:20:27.628Z,101640.13
2023-01-06T02:23:17.176Z,101644.44
2023-01-06T02:26:09.790Z,101646.19
2023-01-06T02:29:38.713Z,101632.31
2023-01-06T02:32:31.479Z,101614.06
2023-01-06T02:35:17.650Z,101622.75
2023-01-06T02:38:04.396Z,101604.50
2023-01-06T02:41:02.519Z,101607.13
2023-01-06T02:43:36.163Z,101607.13
2023-01-06T02:46:36.339Z,101607.16
2023-01-06T02:49:49.844Z,101593.25
2023-01-06T02:52:52.927Z,101584.56
2023-01-06T02:55:44.357Z,101570.66
2023-01-06T02:58:20.524Z,101577.63
2023-01-06T03:00:53.638Z,101573.31
2023-01-06T03:03:25.042Z,101569.88
2023-01-06T03:05:58.823Z,101549.88
2023-01-06T03:08:30.129Z,101540.38
2023-01-06T03:10:59.053Z,101548.19
2023-01-06T03:13:36.239Z,101542.97
2023-01-06T03:16:04.561Z,101530.84
2023-01-06T03:18:32.609Z,101531.72
2023-01-06T03:21:05.427Z,101517.03
2023-01-06T03:23:35.258Z,101527.38
2023-01-06T03:26:03.261Z,101520.47
2023-01-06T03:28:30.846Z,101528.25
2023-01-06T03:31:15.465Z,101525.66
2023-01-06T03:33:57.804Z,101517.81
2023-01-06T03:36:31.378Z,101513.50
2023-01-06T03:39:12.895Z,101514.38
2023-01-06T03:42:35.253Z,101504.81
2023-01-06T03:45:24.891Z,101503.09
2023-01-06T03:48:03.825Z,101499.66
2023-01-06T03:50:41.373Z,101492.72
2023-01-06T03:53:17.918Z,101486.63
2023-01-06T03:55:52.632Z,101477.09
2023-01-06T03:58:21.236Z,101465.81
2023-01-06T04:00:50.098Z,101484.88
2023-01-06T04:03:17.856Z,101473.69
2023-01-06T04:05:45.367Z,101478.06
2023-01-06T04:08:12.886Z,101475.47
2023-01-06T04:10:40.441Z,101469.41
2023-01-06T04:13:07.191Z,101466.81
2023-01-06T04:15:34.718Z,101459.84
2023-01-06T04:18:02.378Z,101463.38
2023-01-06T04:20:31.992Z,101456.41
2023-01-06T04:22:59.943Z,101458.16
2023-01-06T04:25:27.809Z,101440.78
2023-01-06T04:27:55.354Z,101446.00
2023-01-06T04:30:22.859Z,101443.34
2023-01-06T04:32:50.444Z,101446.75
2023-01-06T04:35:18.057Z,101460.69
2023-01-06T04:37:45.749Z,101447.66
2023-01-06T04:40:13.540Z,101458.09
2023-01-06T04:42:58.335Z,101446.84
2023-01-06T04:45:25.931Z,101437.31
2023-01-06T04:47:53.467Z,101435.59
2023-01-06T04:50:21.110Z,101426.00
2023-01-06T04:52:48.677Z,101432.09
2023-01-06T04:55:16.213Z,101418.25
2023-01-06T04:57:43.772Z,101413.84
2023-01-06T05:00:11.912Z,101423.34
2023-01-06T05:02:39.447Z,101417.31
2023-01-06T05:05:07.534Z,101425.09
2023-01-06T05:07:35.229Z,101411.25
2023-01-06T05:10:02.873Z,101415.53
2023-01-06T05:12:30.495Z,101402.59
2023-01-06T05:14:58.076Z,101393.03
2023-01-06T05:17:25.586Z,101387.00
2023-01-06T05:19:53.150Z,101389.63
2023-01-06T05:22:21.020Z,101393.06
2023-01-06T05:24:48.572Z,101397.41
2023-01-06T05:27:16.192Z,101403.44
2023-01-06T05:29:43.907Z,101408.63
2023-01-06T05:32:11.494Z,101392.13
2023-01-06T05:34:39.006Z,101387.75
2023-01-06T05:37:06.539Z,101383.41
2023-01-06T05:39:34.050Z,101411.19
2023-01-06T05:42:01.576Z,101413.75
2023-01-06T05:44:29.165Z,101414.63
2023-01-06T05:46:56.813Z,101409.41
2023-01-06T05:49:24.308Z,101412.03
2023-01-06T05:51:51.866Z,101390.34
2023-01-06T05:54:19.399Z,101404.16
2023-01-06T05:56:46.933Z,101430.19
2023-01-06T05:59:14.475Z,101423.22
2023-01-06T06:01:42.222Z,101409.34
2023-01-06T06:04:09.887Z,101410.16
2023-01-06T06:06:37.461Z,101407.53
2023-01-06T06:09:06.203Z,101413.63
2023-01-06T06:11:33.699Z,101410.13
2023-01-06T06:14:01.306Z,101411.03
2023-01-06T06:16:29.762Z,101413.63
2023-01-06T06:18:59.397Z,101430.09
2023-01-06T06:21:31.799Z,101405.84
2023-01-06T06:24:00.601Z,101420.63
2023-01-06T06:26:28.667Z,101426.72
2023-01-06T06:28:56.754Z,101420.66
2023-01-06T06:31:26.916Z,101424.94
2023-01-06T06:33:59.243Z,101419.72
2023-01-06T06:36:26.896Z,101425.81
2023-01-06T06:38:55.561Z,101400.59
2023-01-06T06:41:24.498Z,101424.91
2023-01-06T06:43:52.794Z,101430.03
2023-01-06T06:46:21.238Z,101433.50
2023-01-06T06:48:49.482Z,101434.31
2023-01-06T06:51:19.355Z,101445.59
2023-01-06T06:53:47.433Z,101456.88
2023-01-06T06:56:16.802Z,101449.97
2023-01-06T06:58:44.442Z,101467.28
2023-01-06T07:01:14.673Z,101486.38
2023-01-06T07:03:42.283Z,101492.47
2023-01-06T07:06:12.461Z,101483.78
2023-01-06T07:08:40.029Z,101509.78
2023-01-06T07:11:07.528Z,101505.41
2023-01-06T07:13:35.073Z,101502.75
2023-01-06T07:16:02.852Z,101510.59
2023-01-06T07:18:30.448Z,101519.28
2023-01-06T07:20:58.055Z,101514.97
2023-01-06T07:23:25.602Z,101525.34
2023-01-06T07:25:57.869Z,101529.63
2023-01-06T07:28:26.289Z,101525.28
2023-01-06T07:30:54.242Z,101535.69
2023-01-06T07:33:22.695Z,101527.91
2023-01-06T07:35:54.631Z,101545.25
2023-01-06T07:38:23.079Z,101540.03
2023-01-06T07:40:50.972Z,101542.56
2023-01-06T07:43:18.501Z,101546.06
2023-01-06T07:45:49.532Z,101554.69
2023-01-06T07:48:17.610Z,101540.81
2023-01-06T07:50:45.231Z,101552.88
2023-01-06T07:53:12.945Z,101558.06
2023-01-06T07:55:40.504Z,101552.84
2023-01-06T07:58:09.716Z,101572.81
2023-01-06T08:00:37.540Z,101581.53
2023-01-06T08:03:07.282Z,101582.38
2023-01-06T08:05:38.096Z,101589.31
2023-01-06T08:08:05.829Z,101598.81
2023-01-06T08:10:33.383Z,101598.88
2023-01-06T08:13:01.086Z,101604.91
2023-01-06T08:15:28.603Z,101601.41
2023-01-06T08:17:56.718Z,101604.81
2023-01-06T08:20:25.301Z,101606.53
2023-01-06T08:22:52.851Z,101618.53
2023-01-06T08:25:20.553Z,101621.13
2023-01-06T08:27:48.145Z,101621.06
2023-01-06T08:30:19.986Z,101633.09
2023-01-06T08:32:47.482Z,101637.34
2023-01-06T08:35:15.211Z,101637.34
2023-01-06T08:37:42.828Z,101638.19
2023-01-06T08:40:10.836Z,101629.38
2023-01-06T08:42:38.489Z,101642.41
2023-01-06T08:45:07.721Z,101647.63
2023-01-06T08:47:35.579Z,101644.16
2023-01-06T08:50:03.327Z,101669.31
2023-01-06T08:52:31.005Z,101669.38
2023-01-06T08:54:59.896Z,101665.88
2023-01-06T08:57:27.468Z,101675.38
2023-01-06T08:59:55.028Z,101671.94
2023-01-06T09:02:22.802Z,101678.91
2023-01-06T09:04:50.378Z,101675.44
2023-01-06T09:07:17.879Z,101673.72
2023-01-06T09:09:45.419Z,101671.97
2023-01-06T09:12:13.050Z,101678.06
2023-01-06T09:14:40.646Z,101679.72
2023-01-06T09:17:08.205Z,101682.31
2023-01-06T09:19:35.754Z,101681.53
2023-01-06T09:22:03.387Z,101691.91
2023-01-06T09:24:31.355Z,101689.38
2023-01-06T09:26:58.988Z,101692.91
2023-01-06T09:29:26.483Z,101693.03
2023-01-06T09:31:54.072Z,101693.03
2023-01-06T09:34:21.656Z,101701.78
2023-01-06T09:36:49.131Z,101692.34
2023-01-06T09:39:18.284Z,101704.53
2023-01-06T09:42:08.332Z,101703.72
2023-01-06T09:44:56.059Z,101702.00
2023-01-06T09:47:32.744Z,101722.97
2023-01-06T09:50:06.575Z,101715.91
2023-01-06T09:52:41.653Z,101708.91
2023-01-06T09:55:41.060Z,101728.13
2023-01-06T09:58:22.184Z,101712.56
2023-01-06T10:00:53.830Z,101714.34
2023-01-06T10:03:24.447Z,101714.53
2023-01-06T10:06:10.364Z,101716.28
2023-01-06T10:08:43.584Z,101717.28
2023-01-06T10:11:16.435Z,101720.75
2023-01-06T10:13:49.141Z,101721.59
2023-01-06T10:16:34.018Z,101724.44
2023-01-06T10:19:20.757Z,101718.38
2023-01-06T10:21:58.796Z,101717.53
2023-01-06T10:24:40.584Z,101713.16
2023-01-06T10:27:41.110Z,101713.25
2023-01-06T10:30:19.938Z,101719.38
2023-01-06T10:32:50.411Z,101720.31
2023-01-06T10:35:21.546Z,101723.81
2023-01-06T10:37:51.433Z,101715.09
2023-01-06T10:40:26.521Z,101725.59
2023-01-06T10:43:14.640Z,101716.97
2023-01-06T10:45:46.058Z,101704.88
2023-01-06T10:48:17.203Z,101722.19
2023-01-06T10:50:45.054Z,101725.66
2023-01-06T10:53:13.963Z,101725.66
2023-01-06T10:55:51.972Z,101724.72
2023-01-06T10:58:38.335Z,101724.63
2023-01-06T11:01:24.784Z,101728.13
2023-01-06T11:04:15.371Z,101735.16
2023-01-06T11:07:03.878Z,101725.56
2023-01-06T11:09:40.801Z,101722.09
2023-01-06T11:12:14.384Z,101722.03
2023-01-06T11:14:42.405Z,101715.06
2023-01-06T11:17:16.999Z,101715.03
2023-01-06T11:19:46.922Z,101732.44
2023-01-06T11:22:48.407Z,101722.03
2023-01-06T11:25:21.785Z,101728.03
2023-01-06T11:28:10.046Z,101737.66
2023-01-06T11:30:56.644Z,101726.44
2023-01-06T11:33:26.705Z,101723.03
2023-01-06T11:35:55.176Z,101728.16
2023-01-06T11:38:23.760Z,101721.16
2023-01-06T11:40:53.057Z,101727.34
2023-01-06T11:43:31.302Z,101734.19
2023-01-06T11:46:03.829Z,101719.44
2023-01-06T11:48:35.510Z,101721.97
2023-01-06T11:51:08.079Z,101711.66
2023-01-06T11:53:37.808Z,101718.59
2023-01-06T11:56:07.183Z,101720.31
2023-01-06T11:58:56.934Z,101710.78
2023-01-06T12:01:37.254Z,101713.41
2023-01-06T12:04:20.637Z,101702.97
2023-01-06T12:06:53.111Z,101707.28
2023-01-06T12:09:27.591Z,101697.72
2023-01-06T12:11:57.301Z,101667.34
2023-01-06T12:14:30.596Z,101685.59
2023-01-06T12:17:55.844Z,101682.19
2023-01-06T12:20:42.209Z,101678.75
2023-01-06T12:23:19.313Z,101675.28
2023-01-06T12:25:49.928Z,101669.28
2023-01-06T12:28:29.154Z,101661.50
2023-01-06T12:31:17.482Z,101672.81
2023-01-06T12:34:02.335Z,101666.66
2023-01-06T12:36:46.227Z,101682.31
2023-01-06T12:39:27.827Z,101680.59
2023-01-06T12:42:06.124Z,101677.13
2023-01-06T12:44:42.745Z,101690.19
2023-01-06T12:47:25.991Z,101680.59
2023-01-06T12:50:02.166Z,101683.16
2023-01-06T12:52:43.868Z,101698.00
2023-01-06T12:55:22.354Z,101707.56
2023-01-06T12:58:19.137Z,101701.50
2023-01-06T13:00:50.767Z,101698.09
2023-01-06T13:03:36.904Z,101688.53
2023-01-06T13:06:13.588Z,101693.75
2023-01-06T13:08:54.808Z,101688.56
2023-01-06T13:11:49.081Z,101673.78
2023-01-06T13:14:32.843Z,101673.81
2023-01-06T13:17:28.871Z,101682.44
2023-01-06T13:20:02.636Z,101666.84
2023-01-06T13:22:47.860Z,101665.09
2023-01-06T13:25:39.450Z,101674.63
2023-01-06T13:28:15.649Z,101674.63
2023-01-06T13:31:08.048Z,101671.13
2023-01-06T13:34:00.892Z,101677.16
2023-01-06T13:37:11.549Z,101678.03
2023-01-06T13:39:44.076Z,101666.66
2023-01-06T13:42:18.512Z,101677.09
2023-01-06T13:44:48.151Z,101668.38
2023-01-06T13:47:20.486Z,101672.72
2023-01-06T13:49:48.427Z,101669.19
2023-01-06T13:52:27.914Z,101688.28
2023-01-06T13:55:02.539Z,101687.41
2023-01-06T13:57:33.792Z,101676.94
2023-01-06T14:00:01.502Z,101679.53
2023-01-06T14:02:35.162Z,101680.34
2023-01-06T14:05:21.033Z,101670.81
2023-01-06T14:07:53.454Z,101669.91
2023-01-06T14:10:35.881Z,101657.69
2023-01-06T14:13:06.932Z,101662.88
2023-01-06T14:15:55.279Z,101666.34
2023-01-06T14:18:44.195Z,101666.22
2023-01-06T14:21:11.729Z,101672.28
2023-01-06T14:23:52.640Z,101668.84
2023-01-06T14:26:20.755Z,101674.00
2023-01-06T14:28:48.554Z,101675.72
2023-01-06T14:31:28.045Z,101671.41
2023-01-06T14:34:03.581Z,101631.28
2023-01-06T14:36:33.643Z,101668.75
2023-01-06T14:39:08.531Z,101666.09
2023-01-06T14:41:41.378Z,101664.34
2023-01-06T14:44:18.980Z,101653.00
2023-01-06T14:46:53.319Z,101657.31
2023-01-06T14:49:27.569Z,101646.91
2023-01-06T14:51:59.033Z,101654.69
2023-01-06T14:54:30.818Z,101645.13
2023-01-06T14:57:00.542Z,101657.22
2023-01-06T14:59:28.537Z,101645.00
2023-01-06T15:02:04.867Z,101657.19
2023-01-06T15:04:34.692Z,101654.56
2023-01-06T15:07:22.697Z,101663.25
2023-01-06T15:09:51.999Z,101669.28
2023-01-06T15:12:27.633Z,101662.31
2023-01-06T15:14:55.564Z,101659.66
2023-01-06T15:17:23.625Z,101661.38
2023-01-06T15:19:53.864Z,101658.72
2023-01-06T15:22:24.705Z,101658.75
2023-01-06T15:24:52.902Z,101669.94
2023-01-06T15:27:20.735Z,101666.44
2023-01-06T15:29:57.474Z,101675.94
2023-01-06T15:32:28.134Z,101678.56
2023-01-06T15:34:59.522Z,101667.31
2023-01-06T15:37:31.055Z,101676.84
2023-01-06T15:39:58.980Z,101662.06
2023-01-06T15:42:27.713Z,101673.22
2023-01-06T15:45:00.005Z,101675.78
2023-01-06T15:47:42.164Z,101667.91
2023-01-06T15:50:18.467Z,101670.47
2023-01-06T15:52:55.076Z,101677.34
2023-01-06T15:55:35.968Z,101670.44
2023-01-06T15:58:09.195Z,101658.25
2023-01-06T16:00:48.032Z,101666.09
2023-01-06T16:03:21.652Z,101658.22
2023-01-06T16:05:55.469Z,101656.47
2023-01-06T16:08:30.404Z,101661.66
2023-01-06T16:11:16.751Z,101662.50
2023-01-06T16:13:58.644Z,101660.66
2023-01-06T16:16:33.606Z,101651.09
2023-01-06T16:19:15.364Z,101658.03
2023-01-06T16:21:44.211Z,101645.91
2023-01-06T16:24:23.225Z,101645.97
2023-01-06T16:27:06.225Z,101652.00
2023-01-06T16:29:38.826Z,101644.13
2023-01-06T16:32:29.975Z,101653.69
2023-01-06T16:35:03.089Z,101654.56
2023-01-06T16:37:36.596Z,101637.19
2023-01-06T16:40:04.484Z,101643.25
2023-01-06T16:42:46.263Z,101654.56
2023-01-06T16:45:27.337Z,101655.44
2023-01-06T16:47:56.120Z,101651.16
2023-01-06T16:50:26.438Z,101642.41
2023-01-06T16:53:13.132Z,101640.66
2023-01-06T16:55:42.487Z,101647.59
2023-01-06T16:58:21.596Z,101647.50
2023-01-06T17:00:52.573Z,101656.97
2023-01-06T17:03:25.869Z,101650.09
2023-01-06T17:05:54.604Z,101659.66
2023-01-06T17:08:33.185Z,101658.78
2023-01-06T17:11:04.083Z,101655.41
2023-01-06T17:13:39.699Z,101657.97
2023-01-06T17:16:17.666Z,101663.16
2023-01-06T17:18:49.934Z,101668.38
2023-01-06T17:21:24.507Z,101661.47
2023-01-06T17:23:54.787Z,101674.53
2023-01-06T17:26:24.395Z,101666.81
2023-01-06T17:28:54.553Z,101669.47
2023-01-06T17:31:35.069Z,101664.31
2023-01-06T17:34:21.865Z,101661.72
2023-01-06T17:36:52.298Z,101663.53
2023-01-06T17:39:25.246Z,101655.72
2023-01-06T17:42:24.515Z,101660.16
2023-01-06T17:44:57.252Z,101649.81
2023-01-06T17:47:29.916Z,101645.50
2023-01-06T17:50:00.065Z,101642.03
2023-01-06T17:52:35.905Z,101647.22
2023-01-06T17:55:43.451Z,101647.22
2023-01-06T17:58:23.031Z,101646.34
2023-01-06T18:00:50.621Z,101661.03
2023-01-06T18:03:28.334Z,101653.38
2023-01-06T18:06:06.348Z,101648.19
2023-01-06T18:08:37.612Z,101641.28
2023-01-06T18:11:11.125Z,101649.94
2023-01-06T18:13:41.099Z,101644.75
2023-01-06T18:16:32.972Z,101649.88
2023-01-06T18:19:16.495Z,101651.69
2023-01-06T18:21:45.710Z,101655.97
2023-01-06T18:24:32.958Z,101658.56
2023-01-06T18:27:07.602Z,101655.16
2023-01-06T18:29:41.347Z,101652.56
2023-01-06T18:32:29.807Z,101654.22
2023-01-06T18:35:15.440Z,101651.59
2023-01-06T18:37:43.340Z,101655.09
2023-01-06T18:40:20.201Z,101658.66
2023-01-06T18:42:49.859Z,101646.53
2023-01-06T18:45:23.460Z,101656.09
2023-01-06T18:47:58.129Z,101651.75
2023-01-06T18:50:41.576Z,101639.66
2023-01-06T18:53:14.992Z,101632.78
2023-01-06T18:55:46.161Z,101634.50
2023-01-06T18:58:46.939Z,101631.03
2023-01-06T19:01:31.843Z,101627.59
2023-01-06T19:04:11.062Z,101611.09
2023-01-06T19:06:40.176Z,101633.78
2023-01-06T19:09:44.897Z,101636.38
2023-01-06T19:12:18.312Z,101629.41
2023-01-06T19:14:49.543Z,101629.34
2023-01-06T19:17:36.464Z,101631.97
2023-01-06T19:20:28.749Z,101624.13
2023-01-06T19:22:57.324Z,101634.63
2023-01-06T19:25:48.190Z,101628.56
2023-01-06T19:28:24.668Z,101632.06
2023-01-06T19:30:56.613Z,101626.88
2023-01-06T19:33:38.325Z,101633.03
2023-01-06T19:36:05.900Z,101640.03
2023-01-06T19:38:40.377Z,101629.63
2023-01-06T19:41:22.267Z,101614.03
2023-01-06T19:43:50.365Z,101619.25
2023-01-06T19:46:28.832Z,101619.22
2023-01-06T19:48:56.979Z,101616.56
2023-01-06T19:51:33.892Z,101620.91
2023-01-06T19:54:03.840Z,101613.97
2023-01-06T19:56:38.514Z,101613.09
2023-01-06T19:59:31.168Z,101619.13
2023-01-06T20:02:08.022Z,101616.59
2023-01-06T20:04:36.442Z,101607.06
2023-01-06T20:07:04.818Z,101616.59
2023-01-06T20:09:33.745Z,101620.91
2023-01-06T20:12:01.844Z,101624.38
2023-01-06T20:14:29.373Z,101629.66
2023-01-06T20:16:57.080Z,101619.31
2023-01-06T20:19:24.964Z,101578.53
2023-01-06T20:21:52.448Z,101607.22
2023-01-06T20:24:19.918Z,101617.66
2023-01-06T20:26:47.394Z,101612.44
2023-01-06T20:29:14.894Z,101602.06
2023-01-06T20:31:42.394Z,101614.22
2023-01-06T20:34:09.940Z,101616.00
2023-01-06T20:36:37.446Z,101606.44
2023-01-06T20:39:05.079Z,101597.78
2023-01-06T20:41:32.599Z,101602.13
2023-01-06T20:44:00.132Z,101606.53
2023-01-06T20:46:27.587Z,101605.63
2023-01-06T20:48:55.131Z,101603.88
2023-01-06T20:51:22.750Z,101598.69
2023-01-06T20:53:50.233Z,101605.63
2023-01-06T20:56:17.783Z,101609.06
2023-01-06T20:58:45.307Z,101603.13
2023-01-06T21:01:12.962Z,101602.19
2023-01-06T21:03:40.589Z,101603.94
2023-01-06T21:06:08.505Z,101603.03
2023-01-06T21:08:36.275Z,101609.09
2023-01-06T21:11:03.839Z,101607.38
2023-01-06T21:13:31.415Z,101609.16
2023-01-06T21:15:58.988Z,101612.66
2023-01-06T21:18:26.482Z,101616.09
2023-01-06T21:20:54.018Z,101611.78
2023-01-06T21:23:21.586Z,101600.53
2023-01-06T21:25:49.085Z,101607.47
2023-01-06T21:28:16.647Z,101598.75
2023-01-06T21:30:44.244Z,101598.78
2023-01-06T21:33:11.867Z,101593.56
2023-01-06T21:35:39.381Z,101590.09
2023-01-06T21:38:06.900Z,101591.81
2023-01-06T21:40:34.419Z,101593.56
2023-01-06T21:43:10.147Z,101590.97
2023-01-06T21:45:42.453Z,101595.28
2023-01-06T21:48:10.305Z,101589.19
2023-01-06T21:50:46.128Z,101597.91
2023-01-06T21:53:15.009Z,101588.28
2023-01-06T21:55:42.528Z,101588.28
2023-01-06T21:58:11.341Z,101595.22
2023-01-06T22:00:39.054Z,101589.19
2023-01-06T22:03:07.445Z,101590.88
2023-01-06T22:05:35.960Z,101586.56
2023-01-06T22:08:03.660Z,101586.53
2023-01-06T22:10:31.701Z,101591.78
2023-01-06T22:13:00.156Z,101580.53
2023-01-06T22:15:29.134Z,101590.09
2023-01-06T22:17:59.772Z,101595.31
2023-01-06T22:20:29.614Z,101584.84
2023-01-06T22:22:57.210Z,101585.72
2023-01-06T22:25:25.081Z,101585.69
2023-01-06T22:27:52.591Z,101584.00
2023-01-06T22:30:20.129Z,101584.84
2023-01-06T22:32:49.291Z,101574.41
2023-01-06T22:35:18.415Z,101584.88
2023-01-06T22:37:46.538Z,101584.91
2023-01-06T22:40:15.644Z,101588.38
2023-01-06T22:42:43.907Z,101590.09
2023-01-06T22:45:12.154Z,101586.53
2023-01-06T22:47:39.931Z,101594.38
2023-01-06T22:50:08.133Z,101597.84
2023-01-06T22:52:35.711Z,101586.56
2023-01-06T22:55:03.607Z,101586.59
2023-01-06T22:57:32.453Z,101584.81
2023-01-06T23:00:02.830Z,101595.25
2023-01-06T23:02:31.266Z,101583.13
2023-01-06T23:05:01.486Z,101593.53
2023-01-06T23:07:29.039Z,101590.91
2023-01-06T23:09:56.645Z,101583.06
2023-01-06T23:12:24.136Z,101585.72
2023-01-06T23:14:51.989Z,101584.84
2023-01-06T23:17:19.528Z,101584.81
2023-01-06T23:19:47.186Z,101585.66
2023-01-06T23:22:15.642Z,101582.22
2023-01-06T23:24:43.167Z,101580.50
2023-01-06T23:27:10.676Z,101586.56
2023-01-06T23:29:38.221Z,101576.97
2023-01-06T23:32:05.906Z,101581.25
2023-01-06T23:34:33.434Z,101582.16
2023-01-06T23:37:01.037Z,101576.97
2023-01-06T23:39:28.588Z,101579.59
2023-01-06T23:41:56.171Z,101569.16
2023-01-06T23:44:23.675Z,101568.31
2023-01-06T23:46:51.329Z,101558.72
2023-01-06T23:49:19.259Z,101565.69
2023-01-06T23:51:47.237Z,101569.13
2023-01-06T23:54:15.159Z,101563.00
2023-01-06T23:56:42.621Z,101562.19
2023-01-06T23:59:12.518Z,101560.47
